sensor_id;sensor_type;location;lat;lon;timestamp;temperature;humidity
43671;DHT22;29267;50.906;7.248;2023-03-01T00:01:26;-1.40;99.90
43671;DHT22;29267;50.906;7.248;2023-03-01T00:03:52;-1.30;99.90
43671;DHT22;29267;50.906;7.248;2023-03-01T00:06:19;-1.20;99.90
43671;DHT22;29267;50.906;7.248;2023-03-01T00:08:45;-1.20;99.90
43671;DHT22;29267;50.906;7.248;2023-03-01T00:11:24;-1.10;99.90
43671;DHT22;29267;50.906;7.248;2023-03-01T00:13:52;-1.10;99.90
43671;DHT22;29267;50.906;7.248;2023-03-01T00:16:29;-1.10;99.90
43671;DHT22;29267;50.906;7.248;2023-03-01T00:18:56;-1.10;99.90
43671;DHT22;29267;50.906;7.248;2023-03-01T00:21:22;-1.00;99.90
43671;DHT22;29267;50.906;7.248;2023-03-01T00:23:49;-1.00;99.90
43671;DHT22;29267;50.906;7.248;2023-03-01T00:26:16;-1.00;99.90
43671;DHT22;29267;50.906;7.248;2023-03-01T00:28:42;-1.00;99.90
43671;DHT22;29267;50.906;7.248;2023-03-01T00:31:19;-1.10;99.90
43671;DHT22;29267;50.906;7.248;2023-03-01T00:33:45;-1.20;99.90
43671;DHT22;29267;50.906;7.248;2023-03-01T00:36:12;-1.30;99.90
43671;DHT22;29267;50.906;7.248;2023-03-01T00:38:40;-1.30;99.90
43671;DHT22;29267;50.906;7.248;2023-03-01T00:41:11;-1.40;99.90
43671;DHT22;29267;50.906;7.248;2023-03-01T00:43:37;-1.40;99.90
43671;DHT22;29267;50.906;7.248;2023-03-01T00:46:06;-1.50;99.90
43671;DHT22;29267;50.906;7.248;2023-03-01T00:48:32;-1.50;99.90
43671;DHT22;29267;50.906;7.248;2023-03-01T00:51:05;-1.50;99.90
43671;DHT22;29267;50.906;7.248;2023-03-01T00:53:31;-1.50;99.90
43671;DHT22;29267;50.906;7.248;2023-03-01T00:55:57;-1.50;99.90
43671;DHT22;29267;50.906;7.248;2023-03-01T00:58:23;-1.50;99.90
43671;DHT22;29267;50.906;7.248;2023-03-01T01:00:49;-1.50;99.90
43671;DHT22;29267;50.906;7.248;2023-03-01T01:03:14;-1.60;99.90
43671;DHT22;29267;50.906;7.248;2023-03-01T01:05:40;-1.60;99.90
43671;DHT22;29267;50.906;7.248;2023-03-01T01:08:05;-1.60;99.90
43671;DHT22;29267;50.906;7.248;2023-03-01T01:10:34;-1.60;99.90
43671;DHT22;29267;50.906;7.248;2023-03-01T01:12:59;-1.50;99.90
43671;DHT22;29267;50.906;7.248;2023-03-01T01:15:28;-1.40;99.90
43671;DHT22;29267;50.906;7.248;2023-03-01T01:17:54;-1.40;99.90
43671;DHT22;29267;50.906;7.248;2023-03-01T01:20:20;-1.30;99.90
43671;DHT22;29267;50.906;7.248;2023-03-01T01:22:46;-1.20;99.90
43671;DHT22;29267;50.906;7.248;2023-03-01T01:25:11;-1.20;99.90
43671;DHT22;29267;50.906;7.248;2023-03-01T01:27:37;-1.20;99.90
43671;DHT22;29267;50.906;7.248;2023-03-01T01:30:03;-1.20;99.90
43671;DHT22;29267;50.906;7.248;2023-03-01T01:32:29;-1.20;99.90
43671;DHT22;29267;50.906;7.248;2023-03-01T01:34:55;-1.20;99.90
43671;DHT22;29267;50.906;7.248;2023-03-01T01:37:21;-1.20;99.90
43671;DHT22;29267;50.906;7.248;2023-03-01T01:39:46;-1.30;99.90
43671;DHT22;29267;50.906;7.248;2023-03-01T01:42:17;-1.30;99.90
43671;DHT22;29267;50.906;7.248;2023-03-01T01:44:45;-1.30;99.90
43671;DHT22;29267;50.906;7.248;2023-03-01T01:47:20;-1.30;99.90
43671;DHT22;29267;50.906;7.248;2023-03-01T01:49:56;-1.30;99.90
43671;DHT22;29267;50.906;7.248;2023-03-01T01:54:57;-1.30;99.90
43671;DHT22;29267;50.906;7.248;2023-03-01T01:57:30;-1.30;99.90
43671;DHT22;29267;50.906;7.248;2023-03-01T02:00:01;-1.40;99.90
43671;DHT22;29267;50.906;7.248;2023-03-01T02:02:28;-1.40;99.90
43671;DHT22;29267;50.906;7.248;2023-03-01T02:05:01;-1.50;99.90
43671;DHT22;29267;50.906;7.248;2023-03-01T02:07:29;-1.50;99.90
43671;DHT22;29267;50.906;7.248;2023-03-01T02:09:55;-1.50;99.90
43671;DHT22;29267;50.906;7.248;2023-03-01T02:12:24;-1.60;99.90
43671;DHT22;29267;50.906;7.248;2023-03-01T02:14:50;-1.80;99.90
43671;DHT22;29267;50.906;7.248;2023-03-01T02:17:17;-1.90;99.90
43671;DHT22;29267;50.906;7.248;2023-03-01T02:22:35;-2.00;99.90
43671;DHT22;29267;50.906;7.248;2023-03-01T02:30:23;-2.10;99.90
43671;DHT22;29267;50.906;7.248;2023-03-01T02:32:50;-2.10;99.90
43671;DHT22;29267;50.906;7.248;2023-03-01T02:35:18;-2.10;99.90
43671;DHT22;29267;50.906;7.248;2023-03-01T02:37:45;-2.00;99.90
43671;DHT22;29267;50.906;7.248;2023-03-01T02:40:15;-1.90;99.90
43671;DHT22;29267;50.906;7.248;2023-03-01T02:42:54;-1.90;99.90
43671;DHT22;29267;50.906;7.248;2023-03-01T02:45:21;-1.90;99.90
43671;DHT22;29267;50.906;7.248;2023-03-01T02:47:47;-1.90;99.90
43671;DHT22;29267;50.906;7.248;2023-03-01T02:55:45;-2.20;99.90
43671;DHT22;29267;50.906;7.248;2023-03-01T02:58:11;-2.30;99.90
43671;DHT22;29267;50.906;7.248;2023-03-01T03:00:39;-2.40;99.90
43671;DHT22;29267;50.906;7.248;2023-03-01T03:03:12;-2.30;99.90
43671;DHT22;29267;50.906;7.248;2023-03-01T03:05:38;-2.40;99.90
43671;DHT22;29267;50.906;7.248;2023-03-01T03:08:04;-2.40;99.90
43671;DHT22;29267;50.906;7.248;2023-03-01T03:10:36;-2.40;99.90
43671;DHT22;29267;50.906;7.248;2023-03-01T03:13:13;-2.40;99.90
43671;DHT22;29267;50.906;7.248;2023-03-01T03:15:40;-2.40;99.90
43671;DHT22;29267;50.906;7.248;2023-03-01T03:18:09;-2.40;99.90
43671;DHT22;29267;50.906;7.248;2023-03-01T03:20:36;-2.40;99.90
43671;DHT22;29267;50.906;7.248;2023-03-01T03:23:03;-2.40;99.90
43671;DHT22;29267;50.906;7.248;2023-03-01T03:25:29;-2.40;99.90
43671;DHT22;29267;50.906;7.248;2023-03-01T03:27:56;-2.50;99.90
43671;DHT22;29267;50.906;7.248;2023-03-01T03:30:26;-2.50;99.90
43671;DHT22;29267;50.906;7.248;2023-03-01T03:32:52;-2.50;99.90
43671;DHT22;29267;50.906;7.248;2023-03-01T03:35:20;-2.50;99.90
43671;DHT22;29267;50.906;7.248;2023-03-01T03:37:46;-2.50;99.90
43671;DHT22;29267;50.906;7.248;2023-03-01T03:40:34;-2.50;99.90
43671;DHT22;29267;50.906;7.248;2023-03-01T03:43:00;-2.40;99.90
43671;DHT22;29267;50.906;7.248;2023-03-01T03:45:25;-2.40;99.90
43671;DHT22;29267;50.906;7.248;2023-03-01T03:47:51;-2.40;99.90
43671;DHT22;29267;50.906;7.248;2023-03-01T03:50:17;-2.40;99.90
43671;DHT22;29267;50.906;7.248;2023-03-01T03:52:43;-2.40;99.90
43671;DHT22;29267;50.906;7.248;2023-03-01T03:55:10;-2.50;99.90
43671;DHT22;29267;50.906;7.248;2023-03-01T03:57:38;-2.50;99.90
43671;DHT22;29267;50.906;7.248;2023-03-01T04:00:07;-2.40;99.90
43671;DHT22;29267;50.906;7.248;2023-03-01T04:02:39;-2.40;99.90
43671;DHT22;29267;50.906;7.248;2023-03-01T04:05:05;-2.40;99.90
43671;DHT22;29267;50.906;7.248;2023-03-01T04:07:31;-2.40;99.90
43671;DHT22;29267;50.906;7.248;2023-03-01T04:09:56;-2.40;99.90
43671;DHT22;29267;50.906;7.248;2023-03-01T04:12:22;-2.40;99.90
43671;DHT22;29267;50.906;7.248;2023-03-01T04:14:48;-2.40;99.90
43671;DHT22;29267;50.906;7.248;2023-03-01T04:17:14;-2.40;99.90
43671;DHT22;29267;50.906;7.248;2023-03-01T04:19:39;-2.30;99.90
43671;DHT22;29267;50.906;7.248;2023-03-01T04:22:05;-2.20;99.90
43671;DHT22;29267;50.906;7.248;2023-03-01T04:24:35;-2.20;99.90
43671;DHT22;29267;50.906;7.248;2023-03-01T04:27:01;-2.30;99.90
43671;DHT22;29267;50.906;7.248;2023-03-01T04:29:27;-2.50;99.90
43671;DHT22;29267;50.906;7.248;2023-03-01T04:31:52;-2.70;99.90
43671;DHT22;29267;50.906;7.248;2023-03-01T04:34:18;-2.90;99.90
43671;DHT22;29267;50.906;7.248;2023-03-01T04:36:44;-2.90;99.90
43671;DHT22;29267;50.906;7.248;2023-03-01T04:39:09;-3.00;99.90
43671;DHT22;29267;50.906;7.248;2023-03-01T04:41:38;-3.00;99.90
43671;DHT22;29267;50.906;7.248;2023-03-01T04:44:05;-3.10;99.90
43671;DHT22;29267;50.906;7.248;2023-03-01T04:46:31;-3.10;99.90
43671;DHT22;29267;50.906;7.248;2023-03-01T04:48:57;-3.10;99.90
43671;DHT22;29267;50.906;7.248;2023-03-01T04:51:22;-3.10;99.90
43671;DHT22;29267;50.906;7.248;2023-03-01T04:53:48;-3.10;99.90
43671;DHT22;29267;50.906;7.248;2023-03-01T04:56:14;-3.00;99.90
43671;DHT22;29267;50.906;7.248;2023-03-01T04:58:40;-2.90;99.90
43671;DHT22;29267;50.906;7.248;2023-03-01T05:01:14;-2.90;99.90
43671;DHT22;29267;50.906;7.248;2023-03-01T05:03:50;-2.80;99.90
43671;DHT22;29267;50.906;7.248;2023-03-01T05:06:18;-2.80;99.90
43671;DHT22;29267;50.906;7.248;2023-03-01T05:08:44;-2.70;99.90
43671;DHT22;29267;50.906;7.248;2023-03-01T05:11:10;-2.70;99.90
43671;DHT22;29267;50.906;7.248;2023-03-01T05:13:37;-2.70;99.90
43671;DHT22;29267;50.906;7.248;2023-03-01T05:16:04;-2.70;99.90
43671;DHT22;29267;50.906;7.248;2023-03-01T05:18:32;-2.80;99.90
43671;DHT22;29267;50.906;7.248;2023-03-01T05:21:13;-3.00;99.90
43671;DHT22;29267;50.906;7.248;2023-03-01T05:23:41;-3.10;99.90
43671;DHT22;29267;50.906;7.248;2023-03-01T05:26:07;-3.20;99.90
43671;DHT22;29267;50.906;7.248;2023-03-01T05:28:33;-3.20;99.90
43671;DHT22;29267;50.906;7.248;2023-03-01T05:31:00;-3.10;99.90
43671;DHT22;29267;50.906;7.248;2023-03-01T05:33:27;-3.00;99.90
43671;DHT22;29267;50.906;7.248;2023-03-01T05:35:53;-2.90;99.90
43671;DHT22;29267;50.906;7.248;2023-03-01T05:38:20;-2.90;99.90
43671;DHT22;29267;50.906;7.248;2023-03-01T05:40:47;-2.80;99.90
43671;DHT22;29267;50.906;7.248;2023-03-01T05:43:15;-2.80;99.90
43671;DHT22;29267;50.906;7.248;2023-03-01T05:45:41;-2.70;99.90
43671;DHT22;29267;50.906;7.248;2023-03-01T05:48:08;-2.70;99.90
43671;DHT22;29267;50.906;7.248;2023-03-01T05:50:44;-2.70;99.90
43671;DHT22;29267;50.906;7.248;2023-03-01T05:53:19;-2.70;99.90
43671;DHT22;29267;50.906;7.248;2023-03-01T05:55:47;-2.70;99.90
43671;DHT22;29267;50.906;7.248;2023-03-01T05:58:15;-2.80;99.90
43671;DHT22;29267;50.906;7.248;2023-03-01T06:00:41;-2.80;99.90
43671;DHT22;29267;50.906;7.248;2023-03-01T06:03:10;-2.80;99.90
43671;DHT22;29267;50.906;7.248;2023-03-01T06:05:36;-2.90;99.90
43671;DHT22;29267;50.906;7.248;2023-03-01T06:08:01;-2.90;99.90
43671;DHT22;29267;50.906;7.248;2023-03-01T06:10:28;-3.00;99.90
43671;DHT22;29267;50.906;7.248;2023-03-01T06:12:54;-3.10;99.90
43671;DHT22;29267;50.906;7.248;2023-03-01T06:15:20;-3.00;99.90
43671;DHT22;29267;50.906;7.248;2023-03-01T06:17:46;-3.00;99.90
43671;DHT22;29267;50.906;7.248;2023-03-01T06:20:20;-2.90;99.90
43671;DHT22;29267;50.906;7.248;2023-03-01T06:22:46;-2.80;99.90
43671;DHT22;29267;50.906;7.248;2023-03-01T06:25:14;-2.80;99.90
43671;DHT22;29267;50.906;7.248;2023-03-01T06:27:40;-2.70;99.90
43671;DHT22;29267;50.906;7.248;2023-03-01T06:30:07;-2.70;99.90
43671;DHT22;29267;50.906;7.248;2023-03-01T06:32:33;-2.70;99.90
43671;DHT22;29267;50.906;7.248;2023-03-01T06:34:59;-2.70;99.90
43671;DHT22;29267;50.906;7.248;2023-03-01T06:37:25;-2.70;99.90
43671;DHT22;29267;50.906;7.248;2023-03-01T06:39:50;-2.70;99.90
43671;DHT22;29267;50.906;7.248;2023-03-01T06:42:16;-2.60;99.90
43671;DHT22;29267;50.906;7.248;2023-03-01T06:44:42;-2.60;99.90
43671;DHT22;29267;50.906;7.248;2023-03-01T06:47:07;-2.60;99.90
43671;DHT22;29267;50.906;7.248;2023-03-01T06:49:33;-2.60;99.90
43671;DHT22;29267;50.906;7.248;2023-03-01T06:51:58;-2.70;99.90
43671;DHT22;29267;50.906;7.248;2023-03-01T06:54:24;-2.70;99.90
43671;DHT22;29267;50.906;7.248;2023-03-01T06:56:50;-2.80;99.90
43671;DHT22;29267;50.906;7.248;2023-03-01T06:59:17;-2.90;99.90
43671;DHT22;29267;50.906;7.248;2023-03-01T07:01:43;-2.90;99.90
43671;DHT22;29267;50.906;7.248;2023-03-01T07:04:09;-3.00;99.90
43671;DHT22;29267;50.906;7.248;2023-03-01T07:06:35;-3.00;99.90
43671;DHT22;29267;50.906;7.248;2023-03-01T07:09:01;-2.90;99.90
43671;DHT22;29267;50.906;7.248;2023-03-01T07:11:26;-2.90;99.90
43671;DHT22;29267;50.906;7.248;2023-03-01T07:13:52;-2.80;99.90
43671;DHT22;29267;50.906;7.248;2023-03-01T07:16:17;-2.70;99.90
43671;DHT22;29267;50.906;7.248;2023-03-01T07:18:44;-2.50;99.90
43671;DHT22;29267;50.906;7.248;2023-03-01T07:21:13;-2.40;99.90
43671;DHT22;29267;50.906;7.248;2023-03-01T07:23:38;-2.40;99.90
43671;DHT22;29267;50.906;7.248;2023-03-01T07:26:04;-2.30;99.90
43671;DHT22;29267;50.906;7.248;2023-03-01T07:28:30;-2.20;99.90
43671;DHT22;29267;50.906;7.248;2023-03-01T07:31:04;-2.10;99.90
43671;DHT22;29267;50.906;7.248;2023-03-01T07:33:30;-2.00;99.90
43671;DHT22;29267;50.906;7.248;2023-03-01T07:35:57;-2.00;99.90
43671;DHT22;29267;50.906;7.248;2023-03-01T07:38:23;-1.90;99.90
43671;DHT22;29267;50.906;7.248;2023-03-01T07:40:48;-1.90;99.90
43671;DHT22;29267;50.906;7.248;2023-03-01T07:43:14;-1.80;99.90
43671;DHT22;29267;50.906;7.248;2023-03-01T07:45:40;-1.80;99.90
43671;DHT22;29267;50.906;7.248;2023-03-01T07:48:05;-1.70;99.90
43671;DHT22;29267;50.906;7.248;2023-03-01T07:50:31;-1.60;99.90
43671;DHT22;29267;50.906;7.248;2023-03-01T07:52:56;-1.60;99.90
43671;DHT22;29267;50.906;7.248;2023-03-01T07:55:22;-1.50;99.90
43671;DHT22;29267;50.906;7.248;2023-03-01T07:57:47;-1.40;99.90
43671;DHT22;29267;50.906;7.248;2023-03-01T08:00:13;-1.20;99.90
43671;DHT22;29267;50.906;7.248;2023-03-01T08:02:39;-1.10;99.90
43671;DHT22;29267;50.906;7.248;2023-03-01T08:05:07;-1.00;99.90
43671;DHT22;29267;50.906;7.248;2023-03-01T08:07:34;-0.80;99.90
43671;DHT22;29267;50.906;7.248;2023-03-01T08:09:59;-0.80;99.90
43671;DHT22;29267;50.906;7.248;2023-03-01T08:12:25;-0.70;99.90
43671;DHT22;29267;50.906;7.248;2023-03-01T08:14:52;-0.60;99.90
43671;DHT22;29267;50.906;7.248;2023-03-01T08:17:18;-0.50;99.90
43671;DHT22;29267;50.906;7.248;2023-03-01T08:19:44;-0.40;99.90
43671;DHT22;29267;50.906;7.248;2023-03-01T08:22:10;-0.30;99.90
43671;DHT22;29267;50.906;7.248;2023-03-01T08:24:36;-0.20;99.90
43671;DHT22;29267;50.906;7.248;2023-03-01T08:27:02;-0.10;99.90
43671;DHT22;29267;50.906;7.248;2023-03-01T08:29:30;0.00;99.90
43671;DHT22;29267;50.906;7.248;2023-03-01T08:31:56;0.10;99.90
43671;DHT22;29267;50.906;7.248;2023-03-01T08:34:22;0.20;99.90
43671;DHT22;29267;50.906;7.248;2023-03-01T08:36:47;0.20;99.90
43671;DHT22;29267;50.906;7.248;2023-03-01T08:39:15;0.20;99.90
43671;DHT22;29267;50.906;7.248;2023-03-01T08:41:41;0.40;99.90
43671;DHT22;29267;50.906;7.248;2023-03-01T08:44:08;0.50;99.90
43671;DHT22;29267;50.906;7.248;2023-03-01T08:46:39;0.60;99.90
43671;DHT22;29267;50.906;7.248;2023-03-01T08:49:13;0.70;99.90
43671;DHT22;29267;50.906;7.248;2023-03-01T08:51:39;0.70;99.90
43671;DHT22;29267;50.906;7.248;2023-03-01T08:54:09;0.80;99.90
43671;DHT22;29267;50.906;7.248;2023-03-01T08:56:36;0.80;99.90
43671;DHT22;29267;50.906;7.248;2023-03-01T08:59:02;0.90;99.90
43671;DHT22;29267;50.906;7.248;2023-03-01T09:01:28;1.00;99.90
43671;DHT22;29267;50.906;7.248;2023-03-01T09:03:53;1.10;99.90
43671;DHT22;29267;50.906;7.248;2023-03-01T09:06:19;1.20;99.90
43671;DHT22;29267;50.906;7.248;2023-03-01T09:08:46;1.20;99.90
43671;DHT22;29267;50.906;7.248;2023-03-01T09:11:15;1.20;99.90
43671;DHT22;29267;50.906;7.248;2023-03-01T09:13:42;1.20;99.90
43671;DHT22;29267;50.906;7.248;2023-03-01T09:16:09;1.30;99.90
43671;DHT22;29267;50.906;7.248;2023-03-01T09:18:35;1.40;99.90
43671;DHT22;29267;50.906;7.248;2023-03-01T09:21:09;1.30;99.90
43671;DHT22;29267;50.906;7.248;2023-03-01T09:23:40;1.40;99.90
43671;DHT22;29267;50.906;7.248;2023-03-01T09:26:07;1.60;99.90
43671;DHT22;29267;50.906;7.248;2023-03-01T09:28:35;1.80;99.90
43671;DHT22;29267;50.906;7.248;2023-03-01T09:31:01;2.20;99.90
43671;DHT22;29267;50.906;7.248;2023-03-01T09:33:28;2.80;99.90
43671;DHT22;29267;50.906;7.248;2023-03-01T09:35:58;3.50;99.90
43671;DHT22;29267;50.906;7.248;2023-03-01T09:38:24;4.50;98.90
43671;DHT22;29267;50.906;7.248;2023-03-01T09:40:50;4.80;98.00
43671;DHT22;29267;50.906;7.248;2023-03-01T09:43:33;5.10;97.90
43671;DHT22;29267;50.906;7.248;2023-03-01T09:46:09;5.60;96.70
43671;DHT22;29267;50.906;7.248;2023-03-01T09:48:42;6.20;95.20
43671;DHT22;29267;50.906;7.248;2023-03-01T09:51:14;6.00;95.40
43671;DHT22;29267;50.906;7.248;2023-03-01T09:53:41;6.00;95.00
43671;DHT22;29267;50.906;7.248;2023-03-01T09:56:19;6.40;94.90
43671;DHT22;29267;50.906;7.248;2023-03-01T09:58:56;6.50;94.00
43671;DHT22;29267;50.906;7.248;2023-03-01T10:01:44;6.70;94.10
43671;DHT22;29267;50.906;7.248;2023-03-01T10:07:05;6.90;92.60
43671;DHT22;29267;50.906;7.248;2023-03-01T10:09:38;6.70;91.90
43671;DHT22;29267;50.906;7.248;2023-03-01T10:12:29;6.60;93.70
43671;DHT22;29267;50.906;7.248;2023-03-01T10:17:42;6.80;92.10
43671;DHT22;29267;50.906;7.248;2023-03-01T10:20:16;7.00;91.70
43671;DHT22;29267;50.906;7.248;2023-03-01T10:22:42;6.60;92.30
43671;DHT22;29267;50.906;7.248;2023-03-01T10:25:14;5.90;92.30
43671;DHT22;29267;50.906;7.248;2023-03-01T10:27:53;5.70;93.10
43671;DHT22;29267;50.906;7.248;2023-03-01T10:30:22;5.10;93.70
43671;DHT22;29267;50.906;7.248;2023-03-01T10:32:53;5.10;93.90
43671;DHT22;29267;50.906;7.248;2023-03-01T10:35:24;5.00;95.00
43671;DHT22;29267;50.906;7.248;2023-03-01T10:38:05;4.90;94.30
43671;DHT22;29267;50.906;7.248;2023-03-01T10:40:33;5.00;95.20
43671;DHT22;29267;50.906;7.248;2023-03-01T10:43:01;4.90;94.60
43671;DHT22;29267;50.906;7.248;2023-03-01T10:45:36;5.00;94.30
43671;DHT22;29267;50.906;7.248;2023-03-01T10:48:16;4.90;93.90
43671;DHT22;29267;50.906;7.248;2023-03-01T10:50:44;5.00;94.70
43671;DHT22;29267;50.906;7.248;2023-03-01T10:53:48;5.10;94.30
43671;DHT22;29267;50.906;7.248;2023-03-01T10:56:14;5.10;94.30
43671;DHT22;29267;50.906;7.248;2023-03-01T10:58:58;5.10;94.30
43671;DHT22;29267;50.906;7.248;2023-03-01T11:01:35;5.20;94.00
43671;DHT22;29267;50.906;7.248;2023-03-01T11:04:11;5.20;94.80
43671;DHT22;29267;50.906;7.248;2023-03-01T11:06:40;5.20;94.20
43671;DHT22;29267;50.906;7.248;2023-03-01T11:09:22;5.30;94.20
43671;DHT22;29267;50.906;7.248;2023-03-01T11:11:53;5.30;93.80
43671;DHT22;29267;50.906;7.248;2023-03-01T11:14:22;5.30;94.30
43671;DHT22;29267;50.906;7.248;2023-03-01T11:16:58;5.50;94.50
43671;DHT22;29267;50.906;7.248;2023-03-01T11:19:24;5.60;93.40
43671;DHT22;29267;50.906;7.248;2023-03-01T11:22:10;5.50;93.60
43671;DHT22;29267;50.906;7.248;2023-03-01T11:24:49;5.60;93.80
43671;DHT22;29267;50.906;7.248;2023-03-01T11:27:31;5.60;93.40
43671;DHT22;29267;50.906;7.248;2023-03-01T11:29:59;5.70;94.00
43671;DHT22;29267;50.906;7.248;2023-03-01T11:32:33;5.60;94.00
43671;DHT22;29267;50.906;7.248;2023-03-01T11:38:23;5.60;92.70
43671;DHT22;29267;50.906;7.248;2023-03-01T11:43:47;5.70;93.70
43671;DHT22;29267;50.906;7.248;2023-03-01T11:51:44;5.70;92.90
43671;DHT22;29267;50.906;7.248;2023-03-01T11:59:51;5.80;93.30
43671;DHT22;29267;50.906;7.248;2023-03-01T12:05:28;5.80;92.60
43671;DHT22;29267;50.906;7.248;2023-03-01T12:08:12;5.80;92.20
43671;DHT22;29267;50.906;7.248;2023-03-01T12:10:54;5.80;92.90
43671;DHT22;29267;50.906;7.248;2023-03-01T12:19:42;6.00;92.00
43671;DHT22;29267;50.906;7.248;2023-03-01T12:28:53;6.10;91.60
43671;DHT22;29267;50.906;7.248;2023-03-01T12:37:29;6.10;90.80
43671;DHT22;29267;50.906;7.248;2023-03-01T12:51:26;6.40;89.60
43671;DHT22;29267;50.906;7.248;2023-03-01T12:53:54;6.50;89.70
43671;DHT22;29267;50.906;7.248;2023-03-01T12:56:29;6.50;89.10
43671;DHT22;29267;50.906;7.248;2023-03-01T13:02:20;6.50;87.60
43671;DHT22;29267;50.906;7.248;2023-03-01T13:05:01;6.50;88.90
43671;DHT22;29267;50.906;7.248;2023-03-01T13:07:53;6.60;87.70
43671;DHT22;29267;50.906;7.248;2023-03-01T13:10:29;6.60;86.80
43671;DHT22;29267;50.906;7.248;2023-03-01T13:13:02;6.70;88.50
43671;DHT22;29267;50.906;7.248;2023-03-01T13:15:34;6.60;86.30
43671;DHT22;29267;50.906;7.248;2023-03-01T13:18:02;6.70;86.40
43671;DHT22;29267;50.906;7.248;2023-03-01T13:28:36;6.80;86.30
43671;DHT22;29267;50.906;7.248;2023-03-01T13:31:05;6.90;86.10
43671;DHT22;29267;50.906;7.248;2023-03-01T13:35:58;7.00;85.50
43671;DHT22;29267;50.906;7.248;2023-03-01T13:41:09;7.10;87.70
43671;DHT22;29267;50.906;7.248;2023-03-01T13:43:36;7.00;84.20
43671;DHT22;29267;50.906;7.248;2023-03-01T13:46:18;7.10;85.80
43671;DHT22;29267;50.906;7.248;2023-03-01T13:48:49;7.10;85.10
43671;DHT22;29267;50.906;7.248;2023-03-01T13:51:16;7.20;85.30
43671;DHT22;29267;50.906;7.248;2023-03-01T13:53:46;7.20;83.60
43671;DHT22;29267;50.906;7.248;2023-03-01T13:56:19;7.20;83.40
43671;DHT22;29267;50.906;7.248;2023-03-01T14:01:26;7.30;81.90
43671;DHT22;29267;50.906;7.248;2023-03-01T14:03:53;7.40;80.80
43671;DHT22;29267;50.906;7.248;2023-03-01T14:06:30;7.50;82.40
43671;DHT22;29267;50.906;7.248;2023-03-01T14:09:17;7.50;86.70
43671;DHT22;29267;50.906;7.248;2023-03-01T14:12:25;7.40;87.30
43671;DHT22;29267;50.906;7.248;2023-03-01T14:20:30;7.40;87.30
43671;DHT22;29267;50.906;7.248;2023-03-01T14:23:01;7.40;87.30
43671;DHT22;29267;50.906;7.248;2023-03-01T14:25:35;7.40;86.90
43671;DHT22;29267;50.906;7.248;2023-03-01T14:28:13;7.40;87.30
43671;DHT22;29267;50.906;7.248;2023-03-01T14:30:44;7.40;88.50
43671;DHT22;29267;50.906;7.248;2023-03-01T14:33:26;7.40;88.80
43671;DHT22;29267;50.906;7.248;2023-03-01T14:36:07;7.40;86.40
43671;DHT22;29267;50.906;7.248;2023-03-01T14:38:38;7.40;87.50
43671;DHT22;29267;50.906;7.248;2023-03-01T14:41:16;7.50;86.90
43671;DHT22;29267;50.906;7.248;2023-03-01T14:43:45;7.50;85.40
43671;DHT22;29267;50.906;7.248;2023-03-01T14:46:21;7.50;85.60
43671;DHT22;29267;50.906;7.248;2023-03-01T14:48:54;7.50;85.70
43671;DHT22;29267;50.906;7.248;2023-03-01T14:51:21;7.50;85.60
43671;DHT22;29267;50.906;7.248;2023-03-01T14:53:47;7.50;85.60
43671;DHT22;29267;50.906;7.248;2023-03-01T14:56:15;7.50;85.10
43671;DHT22;29267;50.906;7.248;2023-03-01T14:58:43;7.40;85.10
43671;DHT22;29267;50.906;7.248;2023-03-01T15:01:16;7.40;86.50
43671;DHT22;29267;50.906;7.248;2023-03-01T15:03:44;7.50;87.70
43671;DHT22;29267;50.906;7.248;2023-03-01T15:06:11;7.40;88.00
43671;DHT22;29267;50.906;7.248;2023-03-01T15:08:41;7.40;88.30
43671;DHT22;29267;50.906;7.248;2023-03-01T15:13:40;7.30;89.10
43671;DHT22;29267;50.906;7.248;2023-03-01T15:16:15;7.30;90.20
43671;DHT22;29267;50.906;7.248;2023-03-01T15:18:57;7.30;90.60
43671;DHT22;29267;50.906;7.248;2023-03-01T15:23:55;7.20;89.90
43671;DHT22;29267;50.906;7.248;2023-03-01T15:26:37;7.10;90.00
43671;DHT22;29267;50.906;7.248;2023-03-01T15:29:03;7.20;87.70
43671;DHT22;29267;50.906;7.248;2023-03-01T15:31:35;7.20;87.50
43671;DHT22;29267;50.906;7.248;2023-03-01T15:34:21;7.20;88.40
43671;DHT22;29267;50.906;7.248;2023-03-01T15:36:47;7.10;89.20
43671;DHT22;29267;50.906;7.248;2023-03-01T15:39:43;7.10;89.00
43671;DHT22;29267;50.906;7.248;2023-03-01T15:45:19;7.10;87.70
43671;DHT22;29267;50.906;7.248;2023-03-01T15:47:50;7.10;88.60
43671;DHT22;29267;50.906;7.248;2023-03-01T15:50:21;7.00;89.60
43671;DHT22;29267;50.906;7.248;2023-03-01T15:52:47;6.90;89.60
43671;DHT22;29267;50.906;7.248;2023-03-01T15:55:19;6.90;89.00
43671;DHT22;29267;50.906;7.248;2023-03-01T15:57:46;6.80;89.30
43671;DHT22;29267;50.906;7.248;2023-03-01T16:00:12;6.80;89.00
43671;DHT22;29267;50.906;7.248;2023-03-01T16:02:39;6.80;89.40
43671;DHT22;29267;50.906;7.248;2023-03-01T16:05:11;6.70;89.90
43671;DHT22;29267;50.906;7.248;2023-03-01T16:07:40;6.60;90.40
43671;DHT22;29267;50.906;7.248;2023-03-01T16:10:06;6.60;90.00
43671;DHT22;29267;50.906;7.248;2023-03-01T16:12:31;6.50;90.00
43671;DHT22;29267;50.906;7.248;2023-03-01T16:14:57;6.50;90.00
43671;DHT22;29267;50.906;7.248;2023-03-01T16:17:23;6.40;89.60
43671;DHT22;29267;50.906;7.248;2023-03-01T16:19:48;6.40;89.90
43671;DHT22;29267;50.906;7.248;2023-03-01T16:22:14;6.30;90.10
43671;DHT22;29267;50.906;7.248;2023-03-01T16:24:39;6.30;90.20
43671;DHT22;29267;50.906;7.248;2023-03-01T16:27:06;6.30;90.10
43671;DHT22;29267;50.906;7.248;2023-03-01T16:29:32;6.30;90.40
43671;DHT22;29267;50.906;7.248;2023-03-01T16:32:00;6.20;90.60
43671;DHT22;29267;50.906;7.248;2023-03-01T16:34:26;6.20;90.20
43671;DHT22;29267;50.906;7.248;2023-03-01T16:36:52;6.20;90.60
43671;DHT22;29267;50.906;7.248;2023-03-01T16:39:17;6.10;90.70
43671;DHT22;29267;50.906;7.248;2023-03-01T16:41:43;6.00;90.60
43671;DHT22;29267;50.906;7.248;2023-03-01T16:44:08;5.90;90.70
43671;DHT22;29267;50.906;7.248;2023-03-01T16:46:34;5.90;90.90
43671;DHT22;29267;50.906;7.248;2023-03-01T16:49:00;5.80;90.90
43671;DHT22;29267;50.906;7.248;2023-03-01T16:51:26;5.80;91.10
43671;DHT22;29267;50.906;7.248;2023-03-01T16:53:52;5.70;91.30
43671;DHT22;29267;50.906;7.248;2023-03-01T16:56:18;5.60;91.50
43671;DHT22;29267;50.906;7.248;2023-03-01T16:58:44;5.50;91.50
43671;DHT22;29267;50.906;7.248;2023-03-01T17:01:11;5.50;91.50
43671;DHT22;29267;50.906;7.248;2023-03-01T17:03:38;5.50;91.80
43671;DHT22;29267;50.906;7.248;2023-03-01T17:06:05;5.40;91.80
43671;DHT22;29267;50.906;7.248;2023-03-01T17:08:32;5.30;92.10
43671;DHT22;29267;50.906;7.248;2023-03-01T17:11:09;5.20;92.20
43671;DHT22;29267;50.906;7.248;2023-03-01T17:13:36;5.10;92.40
43671;DHT22;29267;50.906;7.248;2023-03-01T17:16:07;5.00;92.60
43671;DHT22;29267;50.906;7.248;2023-03-01T17:18:34;5.00;92.70
43671;DHT22;29267;50.906;7.248;2023-03-01T17:21:00;4.90;92.80
43671;DHT22;29267;50.906;7.248;2023-03-01T17:23:27;4.80;92.30
43671;DHT22;29267;50.906;7.248;2023-03-01T17:25:53;4.80;92.60
43671;DHT22;29267;50.906;7.248;2023-03-01T17:28:21;4.70;92.90
43671;DHT22;29267;50.906;7.248;2023-03-01T17:30:47;4.60;92.80
43671;DHT22;29267;50.906;7.248;2023-03-01T17:33:13;4.50;93.30
43671;DHT22;29267;50.906;7.248;2023-03-01T17:35:39;4.50;93.30